Time;durP1;ratioP1;P1;durP2;ratioP2;P2;SDS_P1;SDS_P2;PMS_P1;PMS_P2;Temp;Humidity;BMP_temperature;BMP_pressure;BME280_temperature;BME280_humidity;BME280_pressure;Samples;Min_cycle;Max_cycle;Signal;HPM_P1;HPM_P2
2024/02/10 00:00:55;;;;;;;67.90;35.72;;;;;;;5.36;80.90;98636.72;5089986;28;20036;-71
2024/02/10 00:03:22;;;;;;;76.90;39.38;;;;;;;5.23;82.31;98636.50;5103198;28;20028;-70
2024/02/10 00:05:47;;;;;;;79.40;42.60;;;;;;;5.19;81.98;98641.06;5091921;28;20039;-72
2024/02/10 00:08:13;;;;;;;71.82;38.67;;;;;;;5.23;81.94;98642.06;5110416;28;20023;-71
2024/02/10 00:10:41;;;;;;;68.05;37.22;;;;;;;5.32;83.63;98644.88;5098352;28;20027;-71
2024/02/10 00:13:07;;;;;;;66.82;36.83;;;;;;;5.10;81.94;98645.75;5089957;28;20408;-71
2024/02/10 00:15:33;;;;;;;65.90;34.47;;;;;;;4.98;82.17;98646.34;5076368;28;20024;-71
2024/02/10 00:17:58;;;;;;;67.38;32.90;;;;;;;4.77;84.03;98653.25;5109610;28;20510;-72
2024/02/10 00:20:25;;;;;;;68.18;34.10;;;;;;;4.73;85.71;98640.34;5110122;28;20028;-71
2024/02/10 00:22:52;;;;;;;66.65;33.35;;;;;;;4.74;86.13;98655.84;5091239;28;20569;-70
2024/02/10 00:25:18;;;;;;;73.88;35.35;;;;;;;4.61;85.83;98655.59;5110101;28;20028;-71
2024/02/10 00:27:46;;;;;;;74.03;37.13;;;;;;;4.53;86.98;98664.63;5087863;28;20024;-71
2024/02/10 00:30:16;;;;;;;67.05;34.72;;;;;;;4.42;87.78;98675.16;5089713;28;20028;-71
2024/02/10 00:32:45;;;;;;;69.03;35.75;;;;;;;4.35;88.42;98669.22;5089748;28;20386;-71
2024/02/10 00:35:11;;;;;;;68.97;35.15;;;;;;;4.44;88.42;98674.81;5088272;28;20131;-70
2024/02/10 00:37:36;;;;;;;65.25;33.30;;;;;;;4.28;87.32;98682.66;5088261;28;20618;-71
2024/02/10 00:40:04;;;;;;;67.25;34.85;;;;;;;4.54;86.37;98682.91;5088216;28;20024;-71
2024/02/10 00:42:29;;;;;;;58.08;34.03;;;;;;;4.81;85.21;98683.09;5106912;28;20057;-71
2024/02/10 00:44:59;;;;;;;64.80;37.05;;;;;;;4.86;82.78;98688.50;5109985;28;20415;-71
2024/02/10 00:47:25;;;;;;;76.43;36.97;;;;;;;4.38;86.10;98692.72;5091529;28;20462;-71
2024/02/10 00:49:52;;;;;;;81.22;38.35;;;;;;;4.72;85.93;98678.31;5090847;28;20030;-71
2024/02/10 00:52:18;;;;;;;75.18;39.50;;;;;;;4.81;84.08;98683.09;5109912;28;20072;-68
2024/02/10 00:54:47;;;;;;;69.88;36.35;;;;;;;5.04;83.09;98681.09;5091720;28;20476;-69
2024/02/10 00:57:12;;;;;;;65.15;34.80;;;;;;;5.27;82.29;98679.13;5091313;28;20062;-69
2024/02/10 00:59:40;;;;;;;64.88;33.35;;;;;;;5.52;80.87;98671.22;5101051;28;20103;-70
2024/02/10 01:02:10;;;;;;;67.95;36.47;;;;;;;5.60;79.37;98666.84;5109337;28;20028;-69
2024/02/10 01:04:36;;;;;;;63.80;34.95;;;;;;;5.52;80.65;98668.44;5091695;28;20023;-68
2024/02/10 01:07:01;;;;;;;57.08;31.77;;;;;;;4.96;82.81;98668.03;5091321;28;20023;-69
2024/02/10 01:09:30;;;;;;;62.70;32.83;;;;;;;4.95;82.41;98661.66;5111996;28;20042;-69
2024/02/10 01:11:56;;;;;;;52.53;29.15;;;;;;;4.98;83.12;98654.66;5094679;28;20035;-69
2024/02/10 01:14:22;;;;;;;59.00;30.10;;;;;;;5.10;82.06;98662.38;5113376;28;20400;-69
2024/02/10 01:16:48;;;;;;;71.22;37.25;;;;;;;5.07;82.39;98663.84;5105557;28;20057;-69
2024/02/10 01:19:17;;;;;;;58.50;33.15;;;;;;;5.01;84.42;98654.84;5104026;28;20027;-69
2024/02/10 01:21:42;;;;;;;49.53;29.52;;;;;;;5.33;82.11;98649.28;5113228;28;20027;-69
2024/02/10 01:24:08;;;;;;;64.45;30.25;;;;;;;5.23;81.74;98660.66;5113244;28;20011;-69
2024/02/10 01:26:36;;;;;;;50.05;27.38;;;;;;;5.27;82.63;98667.19;5113257;28;20031;-68
2024/02/10 01:29:05;;;;;;;46.83;24.90;;;;;;;5.30;80.42;98663.78;5113149;28;20031;-69
2024/02/10 01:31:31;;;;;;;47.03;24.90;;;;;;;4.95;82.54;98656.13;5094725;28;20027;-69
2024/02/10 01:33:57;;;;;;;111.40;50.63;;;;;;;4.83;83.36;98653.09;5090332;28;20039;-69
2024/02/10 01:36:22;;;;;;;88.03;41.03;;;;;;;5.10;82.42;98670.69;5074372;28;20024;-68
2024/02/10 01:38:49;;;;;;;51.72;28.35;;;;;;;5.27;81.27;98672.75;5106189;28;20403;-68
2024/02/10 01:41:15;;;;;;;56.55;29.58;;;;;;;5.42;81.47;98669.53;5094591;28;20421;-69
2024/02/10 01:43:42;;;;;;;51.80;24.40;;;;;;;5.51;80.90;98666.81;5092937;28;20079;-69
2024/02/10 01:46:11;;;;;;;41.30;23.55;;;;;;;5.40;80.04;98666.28;5074109;28;20024;-69
2024/02/10 01:48:37;;;;;;;59.15;25.88;;;;;;;5.59;79.51;98654.09;5097566;28;20027;-69
2024/02/10 01:51:03;;;;;;;47.40;25.20;;;;;;;5.13;80.79;98661.75;5094488;28;20027;-68
2024/02/10 01:53:29;;;;;;;45.75;26.45;;;;;;;5.34;82.25;98653.69;5090331;28;20409;-68
2024/02/10 01:55:54;;;;;;;44.75;23.80;;;;;;;5.32;80.58;98651.22;5090742;28;20044;-69
2024/02/10 01:58:22;;;;;;;48.50;24.27;;;;;;;5.12;80.94;98660.94;5089597;28;20539;-69
2024/02/10 02:00:49;;;;;;;44.17;23.33;;;;;;;4.88;82.48;98650.19;5112708;28;20510;-72
2024/02/10 02:03:15;;;;;;;49.17;25.73;;;;;;;4.62;83.06;98637.84;5112522;28;20469;-69
2024/02/10 02:05:42;;;;;;;41.40;22.33;;;;;;;4.45;85.39;98648.78;5092785;28;20223;-68
2024/02/10 02:08:08;;;;;;;46.20;24.58;;;;;;;4.82;83.65;98643.97;5109093;28;20417;-69
2024/02/10 02:10:34;;;;;;;42.58;24.20;;;;;;;4.99;82.80;98645.22;5112319;28;20023;-69
2024/02/10 02:13:00;;;;;;;42.10;22.08;;;;;;;5.09;82.26;98630.25;5112179;28;20034;-69
2024/02/10 02:15:30;;;;;;;44.97;22.52;;;;;;;4.81;82.52;98636.78;5093941;28;20118;-69
2024/02/10 02:17:57;;;;;;;40.75;23.77;;;;;;;4.95;82.21;98638.66;5111012;28;20110;-69
2024/02/10 02:20:28;;;;;;;45.35;23.25;;;;;;;5.17;81.60;98635.03;5091143;28;20089;-69
2024/02/10 02:22:54;;;;;;;39.65;23.13;;;;;;;5.35;80.90;98624.81;5091742;28;20398;-69
2024/02/10 02:25:20;;;;;;;44.17;24.45;;;;;;;5.03;82.60;98635.94;5086077;28;20062;-69
2024/02/10 02:27:46;;;;;;;43.47;23.95;;;;;;;5.24;81.38;98627.06;5111914;28;20031;-69
2024/02/10 02:30:12;;;;;;;46.03;23.70;;;;;;;5.36;80.87;98633.94;5112003;28;20038;-68
2024/02/10 02:32:37;;;;;;;44.03;23.58;;;;;;;5.29;79.64;98635.25;5111869;28;20104;-69
2024/02/10 02:35:09;;;;;;;39.40;22.52;;;;;;;5.44;79.00;98642.31;5111069;28;20052;-68
2024/02/10 02:37:37;;;;;;;41.65;23.60;;;;;;;5.40;79.30;98624.66;5093372;28;20471;-69
2024/02/10 02:40:06;;;;;;;44.75;23.75;;;;;;;5.30;78.76;98624.94;5093831;28;20468;-69
2024/02/10 02:42:32;;;;;;;35.28;22.00;;;;;;;5.22;80.57;98625.75;5091122;28;20502;-69
2024/02/10 02:44:59;;;;;;;40.30;22.83;;;;;;;4.86;82.70;98620.03;5091368;28;20073;-69
2024/02/10 02:47:25;;;;;;;45.38;25.00;;;;;;;4.84;83.33;98632.56;5091156;28;20027;-69
2024/02/10 02:49:51;;;;;;;50.00;25.60;;;;;;;4.77;81.81;98639.41;5088456;28;20015;-69
2024/02/10 02:52:16;;;;;;;42.10;24.67;;;;;;;4.54;83.17;98637.78;5111456;28;20030;-69
2024/02/10 02:54:42;;;;;;;48.72;24.95;;;;;;;4.11;87.45;98634.34;5111452;28;20028;-70
2024/02/10 02:57:08;;;;;;;47.53;26.52;;;;;;;4.31;87.02;98641.34;5088369;28;20040;-69
2024/02/10 02:59:34;;;;;;;45.03;24.58;;;;;;;4.55;84.70;98637.44;5091040;28;20028;-69
2024/02/10 03:02:02;;;;;;;48.65;27.25;;;;;;;4.65;83.88;98647.47;5091045;28;20027;-69
2024/02/10 03:04:27;;;;;;;69.57;32.90;;;;;;;4.66;82.69;98648.28;5084901;28;20027;-68
2024/02/10 03:06:54;;;;;;;67.53;33.45;;;;;;;4.69;83.48;98640.16;5070802;28;20405;-68
2024/02/10 03:09:23;;;;;;;76.10;30.83;;;;;;;4.77;83.72;98644.09;5069227;28;20029;-68
2024/02/10 03:11:51;;;;;;;61.53;29.65;;;;;;;4.52;82.56;98651.94;5068901;28;20070;-69
2024/02/10 03:14:16;;;;;;;53.70;28.58;;;;;;;4.60;82.47;98653.94;5070352;28;20409;-69
2024/02/10 03:16:44;;;;;;;53.63;28.58;;;;;;;4.36;83.89;98654.25;5070448;28;20039;-68
2024/02/10 03:19:10;;;;;;;49.88;28.50;;;;;;;4.38;84.61;98651.19;5080219;28;20520;-68
2024/02/10 03:21:35;;;;;;;63.53;31.58;;;;;;;4.27;84.06;98645.88;5089286;28;20116;-69
2024/02/10 03:24:04;;;;;;;53.25;29.00;;;;;;;4.46;85.02;98651.22;5089403;28;20016;-69
2024/02/10 03:26:31;;;;;;;53.70;29.98;;;;;;;3.79;87.34;98644.44;5083536;28;20028;-69
2024/02/10 03:28:58;;;;;;;53.38;29.92;;;;;;;4.15;88.08;98637.31;5083686;28;20041;-68
2024/02/10 03:31:24;;;;;;;56.58;29.67;;;;;;;4.01;87.72;98635.41;5084439;28;20392;-69
2024/02/10 03:33:49;;;;;;;56.95;28.02;;;;;;;3.98;88.41;98638.81;5073279;28;20028;-69
2024/02/10 03:36:15;;;;;;;57.65;29.45;;;;;;;4.09;87.95;98642.16;5088559;28;20066;-69
2024/02/10 03:38:41;;;;;;;44.80;25.75;;;;;;;4.06;88.37;98635.28;5083043;28;20024;-69
2024/02/10 03:41:10;;;;;;;60.70;33.70;;;;;;;3.96;86.93;98635.50;5069082;28;20071;-69
2024/02/10 03:43:36;;;;;;;69.38;33.85;;;;;;;3.93;88.64;98664.63;5069883;28;20115;-69
2024/02/10 03:46:02;;;;;;;56.25;31.90;;;;;;;4.06;86.28;98676.78;5071400;28;20073;-69
2024/02/10 03:48:27;;;;;;;54.63;29.33;;;;;;;4.06;85.09;98679.56;5085947;28;20125;-69
2024/02/10 03:50:53;;;;;;;57.22;30.17;;;;;;;4.10;85.12;98681.69;5090135;28;20554;-69
2024/02/10 03:53:18;;;;;;;47.05;27.48;;;;;;;3.69;86.78;98670.41;5088889;28;20020;-68
2024/02/10 03:55:44;;;;;;;58.55;28.65;;;;;;;3.71;87.17;98678.41;5093581;28;20040;-69
2024/02/10 03:58:11;;;;;;;53.22;28.50;;;;;;;3.96;87.15;98699.16;5109477;28;20023;-69
2024/02/10 04:00:38;;;;;;;58.47;29.83;;;;;;;4.02;86.43;98681.31;5110253;28;20023;-69
2024/02/10 04:03:05;;;;;;;47.17;29.90;;;;;;;3.01;91.45;98681.09;5091918;28;20080;-68
2024/02/10 04:05:34;;;;;;;58.90;30.35;;;;;;;3.03;92.98;98695.44;5081124;28;20450;-69
2024/02/10 04:08:00;;;;;;;64.32;35.80;;;;;;;3.25;91.77;98696.69;5104196;28;20565;-69
2024/02/10 04:10:28;;;;;;;63.65;33.53;;;;;;;2.88;94.53;98678.00;5092517;28;20016;-69
2024/02/10 04:12:54;;;;;;;58.05;31.17;;;;;;;2.94;95.51;98675.97;5100348;28;20489;-69
2024/02/10 04:15:20;;;;;;;57.55;29.65;;;;;;;3.32;94.26;98678.59;5096742;28;20024;-69
2024/02/10 04:17:49;;;;;;;61.88;31.42;;;;;;;3.53;91.87;98682.91;5109777;28;20051;-69
2024/02/10 04:20:19;;;;;;;58.92;32.28;;;;;;;3.66;90.47;98682.09;5109197;28;20066;-69
2024/02/10 04:22:45;;;;;;;56.20;30.85;;;;;;;3.68;91.11;98688.13;5102456;28;20024;-69
2024/02/10 04:25:12;;;;;;;50.92;29.27;;;;;;;3.86;89.59;98689.13;5088531;28;20030;-69
2024/02/10 04:27:38;;;;;;;57.35;31.45;;;;;;;3.95;88.61;98682.88;5109177;28;20046;-69
2024/02/10 04:30:04;;;;;;;58.95;28.52;;;;;;;3.39;92.16;98677.38;5109695;28;20028;-69
2024/02/10 04:32:33;;;;;;;49.25;27.60;;;;;;;3.59;92.58;98668.66;5110039;28;20136;-69
2024/02/10 04:34:59;;;;;;;51.67;28.02;;;;;;;3.78;91.01;98676.00;5109665;28;20461;-69
2024/02/10 04:37:24;;;;;;;50.33;28.13;;;;;;;3.50;89.19;98676.88;5108993;28;20088;-69
2024/02/10 04:39:50;;;;;;;57.30;27.85;;;;;;;3.70;89.18;98677.56;5107427;28;20030;-68
2024/02/10 04:42:15;;;;;;;53.28;28.33;;;;;;;3.54;90.21;98663.22;5109825;28;20027;-69
2024/02/10 04:44:48;;;;;;;54.58;30.90;;;;;;;3.42;90.84;98662.91;5112346;28;20015;-69
2024/02/10 04:47:17;;;;;;;68.28;32.78;;;;;;;3.43;89.16;98651.56;5094881;28;20023;-69
2024/02/10 04:49:43;;;;;;;57.08;30.73;;;;;;;3.43;89.95;98634.97;5094856;28;20051;-69
2024/02/10 04:52:08;;;;;;;58.38;30.80;;;;;;;3.54;89.99;98640.31;5114242;28;20030;-70
2024/02/10 04:54:34;;;;;;;56.65;31.20;;;;;;;3.30;88.80;98647.66;5105845;28;20504;-69
2024/02/10 04:56:59;;;;;;;67.47;33.83;;;;;;;3.25;89.88;98653.31;5093332;28;20044;-70
2024/02/10 04:59:27;;;;;;;59.95;31.90;;;;;;;3.51;90.09;98653.63;5103924;28;20030;-69
2024/02/10 05:01:55;;;;;;;57.15;30.27;;;;;;;3.26;91.79;98663.22;5113727;28;20477;-69
2024/02/10 05:04:20;;;;;;;55.65;31.38;;;;;;;3.31;91.49;98654.03;5113517;28;20019;-68
2024/02/10 05:06:46;;;;;;;64.20;30.40;;;;;;;3.19;90.92;98658.09;5112828;28;20547;-68
2024/02/10 05:09:13;;;;;;;55.90;28.23;;;;;;;3.45;91.41;98651.28;5103750;28;20024;-68
2024/02/10 05:11:39;;;;;;;49.33;29.83;;;;;;;3.08;92.31;98645.59;5108742;28;20023;-68
2024/02/10 05:14:07;;;;;;;61.35;31.75;;;;;;;3.20;93.82;98645.13;5112958;28;20531;-70
2024/02/10 05:16:32;;;;;;;76.07;37.92;;;;;;;3.27;93.27;98655.78;5113355;28;20034;-68
2024/02/10 05:19:00;;;;;;;72.85;37.30;;;;;;;3.10;91.41;98657.16;5112589;28;20023;-69
2024/02/10 05:21:27;;;;;;;69.68;36.25;;;;;;;3.32;92.90;98666.72;5113339;28;20043;-69
2024/02/10 05:23:59;;;;;;;68.38;35.45;;;;;;;2.76;94.08;98658.31;5094871;28;20130;-71
2024/02/10 05:26:36;;;;;;;78.85;42.65;;;;;;;2.89;95.36;98671.34;5113236;28;20019;-70
2024/02/10 05:29:06;;;;;;;81.95;39.88;;;;;;;3.20;94.72;98673.56;5096313;28;20450;-69
2024/02/10 05:31:36;;;;;;;69.70;39.78;;;;;;;3.50;92.08;98679.63;5085184;28;20400;-68
2024/02/10 05:34:05;;;;;;;77.22;41.90;;;;;;;3.61;91.15;98654.50;5090069;28;20032;-70
2024/02/10 05:36:34;;;;;;;60.00;33.50;;;;;;;3.37;90.61;98656.38;5074517;28;20031;-71
2024/02/10 05:39:02;;;;;;;56.73;31.13;;;;;;;3.45;91.19;98657.59;5100214;28;20035;-70
2024/02/10 05:41:28;;;;;;;59.90;34.67;;;;;;;3.56;89.93;98674.00;5112968;28;20023;-71
2024/02/10 05:43:53;;;;;;;72.03;36.97;;;;;;;3.65;89.45;98677.69;5112865;28;20019;-70
2024/02/10 05:46:19;;;;;;;86.95;47.55;;;;;;;3.70;89.44;98665.69;5112162;28;20051;-69
2024/02/10 05:48:45;;;;;;;77.18;45.95;;;;;;;3.78;89.73;98660.25;5092840;28;20039;-71
2024/02/10 05:51:11;;;;;;;84.70;48.08;;;;;;;3.83;89.20;98650.19;5104092;28;20476;-70
2024/02/10 05:53:37;;;;;;;90.32;50.40;;;;;;;3.83;88.63;98642.72;5074129;28;20125;-70
2024/02/10 05:56:03;;;;;;;98.88;51.83;;;;;;;3.84;88.91;98647.13;5072623;28;20148;-70
2024/02/10 05:58:29;;;;;;;96.38;51.33;;;;;;;3.74;90.04;98664.78;5092355;28;20020;-71
2024/02/10 06:00:55;;;;;;;97.80;55.10;;;;;;;3.62;92.68;98673.56;5092158;28;20051;-70
2024/02/10 06:03:21;;;;;;;128.80;60.35;;;;;;;3.57;92.50;98682.00;5099725;28;20035;-69
2024/02/10 06:05:47;;;;;;;107.15;56.88;;;;;;;3.58;93.44;98689.16;5112315;28;20047;-69
2024/02/10 06:08:13;;;;;;;140.73;69.28;;;;;;;3.78;91.92;98703.69;5092998;28;20561;-69
2024/02/10 06:10:39;;;;;;;94.30;50.17;;;;;;;3.69;91.63;98700.81;5112259;28;20024;-69
2024/02/10 06:13:06;;;;;;;92.15;49.72;;;;;;;3.91;91.63;98713.09;5112360;28;20435;-68
2024/02/10 06:15:32;;;;;;;121.25;61.50;;;;;;;3.25;94.32;98729.88;5111530;28;20028;-70
2024/02/10 06:18:00;;;;;;;101.43;51.63;;;;;;;3.37;96.53;98739.31;5095012;28;20107;-69
2024/02/10 06:20:25;;;;;;;87.38;47.00;;;;;;;3.75;95.38;98726.44;5111946;28;20031;-70
2024/02/10 06:22:53;;;;;;;69.13;33.88;;;;;;;3.67;94.18;98713.31;5112219;28;20027;-70
2024/02/10 06:25:26;;;;;;;64.18;32.67;;;;;;;3.58;95.87;98710.44;5111963;28;20011;-70
2024/02/10 06:27:59;;;;;;;66.88;33.33;;;;;;;3.90;95.65;98701.19;5093748;28;20560;-71
2024/02/10 06:30:28;;;;;;;56.30;26.35;;;;;;;3.98;93.60;98713.53;5097742;28;20024;-73
2024/02/10 06:32:56;;;;;;;75.20;27.55;;;;;;;3.59;93.87;98715.69;5091332;28;20035;-71
2024/02/10 06:35:22;;;;;;;54.45;24.23;;;;;;;3.87;92.82;98723.97;5097105;28;20534;-72
2024/02/10 06:37:51;;;;;;;100.70;55.25;;;;;;;3.23;96.58;98728.22;5093210;28;20032;-73
2024/02/10 06:40:17;;;;;;;86.32;40.97;;;;;;;3.25;99.54;98739.00;5081130;28;20036;-71
2024/02/10 06:42:46;;;;;;;59.60;33.00;;;;;;;3.64;98.92;98743.22;5110803;28;20108;-72
2024/02/10 06:45:14;;;;;;;65.75;33.22;;;;;;;3.64;98.71;98736.88;5110195;28;20020;-69
2024/02/10 06:47:44;;;;;;;65.60;31.35;;;;;;;3.90;97.88;98733.59;5104244;28;20962;-68
2024/02/10 06:50:14;;;;;;;56.63;30.85;;;;;;;4.06;96.90;98726.59;5084422;28;20027;-71
2024/02/10 06:52:44;;;;;;;48.63;28.95;;;;;;;4.24;95.91;98726.78;5079952;28;20121;-69
2024/02/10 06:55:14;;;;;;;50.80;31.23;;;;;;;4.54;94.38;98731.94;5073540;28;20036;-75
2024/02/10 06:57:43;;;;;;;70.45;43.00;;;;;;;4.59;93.20;98738.19;5089645;28;20459;-70
2024/02/10 07:00:10;;;;;;;90.93;60.65;;;;;;;4.75;92.48;98727.53;5110042;28;20043;-71
2024/02/10 07:02:38;;;;;;;58.55;30.63;;;;;;;4.92;91.87;98729.63;5109500;28;20110;-70
2024/02/10 07:05:05;;;;;;;45.85;26.10;;;;;;;4.99;91.48;98722.81;5098138;28;20031;-72
2024/02/10 07:07:31;;;;;;;80.50;36.53;;;;;;;4.99;92.15;98722.81;5096531;28;20028;-73
2024/02/10 07:09:59;;;;;;;58.40;30.48;;;;;;;5.09;92.73;98724.50;5104656;28;20038;-71
2024/02/10 07:12:27;;;;;;;57.95;29.65;;;;;;;5.22;91.64;98720.03;5108320;28;20028;-71
2024/02/10 07:14:54;;;;;;;69.57;36.70;;;;;;;5.39;90.49;98730.41;5096607;28;20032;-73
2024/02/10 07:17:20;;;;;;;70.68;31.77;;;;;;;5.57;89.49;98736.84;5081475;28;20020;-71
2024/02/10 07:19:49;;;;;;;77.38;42.03;;;;;;;5.67;88.29;98724.63;5088870;28;20084;-73
2024/02/10 07:22:16;;;;;;;60.30;33.50;;;;;;;5.73;87.18;98735.28;5099594;28;20020;-72
2024/02/10 07:24:46;;;;;;;42.97;25.30;;;;;;;5.80;87.20;98742.34;5089574;28;20024;-73
2024/02/10 07:27:16;;;;;;;;;;;;;;;5.98;86.62;98740.44;5088388;28;20416;-72
2024/02/10 07:29:44;;;;;;;39.60;22.58;;;;;;;6.07;85.77;98734.94;5089181;28;19923;-73
2024/02/10 07:32:13;;;;;;;32.35;18.17;;;;;;;6.17;85.06;98726.28;5088533;28;20036;-71
2024/02/10 07:34:38;;;;;;;42.85;23.88;;;;;;;6.20;84.02;98736.75;5088231;28;20032;-73
2024/02/10 07:37:04;;;;;;;74.20;39.67;;;;;;;6.48;83.54;98739.22;5105745;28;20019;-71
2024/02/10 07:39:30;;;;;;;112.60;50.17;;;;;;;6.60;84.62;98742.19;5108540;28;20024;-70
2024/02/10 07:41:59;;;;;;;116.25;58.15;;;;;;;6.74;84.16;98744.81;5109258;28;20030;-70
2024/02/10 07:44:27;;;;;;;64.65;33.58;;;;;;;6.82;84.64;98737.59;5108400;28;20028;-69
2024/02/10 07:46:55;;;;;;;67.32;32.60;;;;;;;7.11;82.61;98727.75;5109337;28;20080;-70
2024/02/10 07:49:22;;;;;;;32.17;19.67;;;;;;;7.00;83.70;98745.94;5106920;28;20062;-70
2024/02/10 07:51:48;;;;;;;38.75;20.70;;;;;;;7.24;81.59;98750.13;5094144;28;20424;-70
2024/02/10 07:54:14;;;;;;;48.03;20.95;;;;;;;7.28;81.32;98738.03;5086213;28;20028;-68
2024/02/10 07:56:41;;;;;;;34.60;19.80;;;;;;;7.29;81.65;98749.97;5070245;28;20058;-70
2024/02/10 07:59:07;;;;;;;30.80;19.48;;;;;;;7.58;81.24;98734.50;5103819;28;20065;-69
2024/02/10 08:01:32;;;;;;;36.17;20.50;;;;;;;7.92;80.76;98743.06;5107596;28;20108;-68
2024/02/10 08:03:58;;;;;;;36.72;18.42;;;;;;;7.99;79.44;98735.81;5104746;28;20047;-70
2024/02/10 08:06:26;;;;;;;31.60;18.02;;;;;;;8.09;79.24;98750.50;5082343;28;20124;-71
2024/02/10 08:09:01;;;;;;;29.73;17.90;;;;;;;8.16;78.43;98767.50;5088992;28;20028;-76
2024/02/10 08:11:30;;;;;;;26.38;18.13;;;;;;;8.12;78.27;98758.19;5082469;28;20524;-70
2024/02/10 08:13:56;;;;;;;51.25;32.30;;;;;;;8.13;79.91;98755.03;5090317;28;20046;-70
2024/02/10 08:16:27;;;;;;;30.08;19.17;;;;;;;8.35;79.00;98739.19;5097499;28;20030;-70
2024/02/10 08:18:56;;;;;;;32.40;17.70;;;;;;;8.54;78.57;98740.75;5093250;28;20158;-69
2024/02/10 08:21:24;;;;;;;30.38;17.92;;;;;;;8.71;76.88;98743.38;5083758;28;20026;-70
2024/02/10 08:23:57;;;;;;;38.33;22.02;;;;;;;8.70;76.40;98744.53;5077577;28;20031;-70
2024/02/10 08:26:24;;;;;;;45.55;29.45;;;;;;;8.76;75.82;98731.22;5093509;28;20455;-70
2024/02/10 08:28:51;;;;;;;48.45;29.88;;;;;;;8.75;75.04;98729.59;5093496;28;20619;-70
2024/02/10 08:31:20;;;;;;;55.40;33.33;;;;;;;8.81;74.75;98739.38;5068166;28;20023;-70
2024/02/10 08:33:49;;;;;;;59.22;36.25;;;;;;;8.77;75.36;98745.97;5081800;28;20419;-70
2024/02/10 08:36:16;;;;;;;55.15;35.17;;;;;;;8.84;75.01;98740.66;5092746;28;20031;-70
2024/02/10 08:38:42;;;;;;;45.25;25.27;;;;;;;8.89;74.92;98742.44;5100246;28;20532;-70
2024/02/10 08:41:09;;;;;;;55.33;30.05;;;;;;;8.76;74.86;98738.78;5074571;28;20507;-69
2024/02/10 08:43:38;;;;;;;75.55;39.55;;;;;;;8.91;74.35;98740.09;5076468;28;20040;-69
2024/02/10 08:46:05;;;;;;;57.00;35.20;;;;;;;8.94;73.79;98751.41;5078815;28;20326;-70
2024/02/10 08:48:30;;;;;;;51.83;27.80;;;;;;;8.97;73.52;98749.91;5084653;28;20028;-70
2024/02/10 08:50:56;;;;;;;42.13;22.23;;;;;;;9.16;72.56;98738.25;5076499;28;20038;-70
2024/02/10 08:53:22;;;;;;;36.90;21.90;;;;;;;9.24;72.63;98750.47;5085398;28;20110;-70
2024/02/10 08:55:49;;;;;;;69.47;38.63;;;;;;;9.43;72.36;98760.31;5106145;28;20426;-69
2024/02/10 08:58:15;;;;;;;50.50;31.40;;;;;;;8.86;74.08;98755.06;5073847;28;20031;-70
2024/02/10 09:00:45;;;;;;;45.72;29.38;;;;;;;8.75;75.41;98757.47;5093955;28;20474;-70
2024/02/10 09:03:14;;;;;;;48.70;30.65;;;;;;;9.25;73.10;98752.94;5081631;28;20031;-70
2024/02/10 09:05:40;;;;;;;46.70;26.05;;;;;;;8.99;74.54;98761.53;5075600;28;20035;-70
2024/02/10 09:08:06;;;;;;;42.50;23.92;;;;;;;9.55;73.95;98765.91;5099974;28;20024;-70
2024/02/10 09:10:32;;;;;;;35.80;22.17;;;;;;;9.75;72.05;98755.00;5100804;28;20027;-71
2024/02/10 09:13:03;;;;;;;36.35;19.30;;;;;;;10.19;71.00;98765.63;5107382;28;20070;-71
2024/02/10 09:15:28;;;;;;;;;;;;;;;10.30;70.46;98766.78;5098206;28;20055;-71
2024/02/10 09:17:53;;;;;;;32.35;16.50;;;;;;;10.39;69.53;98756.28;5102980;28;19950;-70
2024/02/10 09:20:23;;;;;;;24.33;16.00;;;;;;;10.25;67.90;98765.03;5106998;28;20110;-71
2024/02/10 09:22:48;;;;;;;38.38;16.23;;;;;;;10.38;67.96;98748.28;5091076;28;20028;-70
2024/02/10 09:25:16;;;;;;;27.05;16.02;;;;;;;10.61;66.76;98750.56;5104281;28;20015;-70
2024/02/10 09:27:41;;;;;;;29.45;17.48;;;;;;;10.82;66.00;98750.41;5107007;28;20034;-71
2024/02/10 09:30:11;;;;;;;29.90;16.17;;;;;;;10.47;68.51;98743.38;5111210;28;20043;-70
2024/02/10 09:32:37;;;;;;;34.28;17.83;;;;;;;10.70;69.53;98747.66;5108468;28;20026;-69
2024/02/10 09:35:06;;;;;;;29.70;16.58;;;;;;;10.56;67.70;98736.84;5093922;28;20431;-70
2024/02/10 09:37:31;;;;;;;27.40;17.27;;;;;;;10.81;66.71;98752.41;5100300;28;20031;-71
2024/02/10 09:39:57;;;;;;;30.13;18.25;;;;;;;10.85;67.34;98760.91;5095414;28;20044;-71
2024/02/10 09:42:25;;;;;;;30.95;18.25;;;;;;;10.51;67.14;98747.13;5090586;28;20062;-70
2024/02/10 09:44:51;;;;;;;44.13;20.08;;;;;;;10.55;70.54;98743.59;5090717;28;20027;-70
2024/02/10 09:47:17;;;;;;;31.52;19.10;;;;;;;10.36;71.13;98743.03;5101885;28;20104;-70
2024/02/10 09:49:43;;;;;;;36.63;21.15;;;;;;;10.49;70.80;98740.25;5086523;28;20067;-70
2024/02/10 09:52:09;;;;;;;22.90;16.30;;;;;;;10.54;69.80;98751.16;5109229;28;20031;-70
2024/02/10 09:54:36;;;;;;;30.63;17.17;;;;;;;10.92;67.67;98760.28;5099397;28;20032;-71
2024/02/10 09:57:03;;;;;;;32.33;18.27;;;;;;;11.02;67.18;98748.59;5100083;28;20048;-71
2024/02/10 09:59:29;;;;;;;28.65;18.33;;;;;;;11.37;65.47;98741.53;5099645;28;20059;-70
2024/02/10 10:01:59;;;;;;;37.28;20.90;;;;;;;11.35;65.14;98750.31;5102650;28;20023;-71
2024/02/10 10:04:25;;;;;;;44.10;22.73;;;;;;;11.43;64.96;98747.69;5090316;28;20437;-71
2024/02/10 10:06:51;;;;;;;45.05;22.35;;;;;;;11.58;64.77;98740.50;5084614;28;20496;-71
2024/02/10 10:09:19;;;;;;;48.10;23.73;;;;;;;11.55;64.07;98744.81;5102850;28;20039;-71
2024/02/10 10:11:45;;;;;;;36.20;19.15;;;;;;;11.32;63.88;98755.81;5090084;28;20034;-78
2024/02/10 10:14:15;;;;;;;28.60;18.38;;;;;;;11.26;65.27;98755.25;5111200;28;20031;-78
2024/02/10 10:16:41;;;;;;;37.27;18.87;;;;;;;11.47;64.64;98757.03;5106455;28;20024;-73
2024/02/10 10:19:08;;;;;;;39.47;20.40;;;;;;;11.51;63.96;98749.53;5074360;28;20373;-73
2024/02/10 10:21:34;;;;;;;33.60;18.13;;;;;;;11.71;62.68;98728.03;5102919;28;20028;-73
2024/02/10 10:24:00;;;;;;;27.13;17.50;;;;;;;11.99;61.61;98720.72;5103818;28;20034;-70
2024/02/10 10:26:26;;;;;;;38.60;18.45;;;;;;;11.72;61.47;98735.28;5107388;28;20023;-73
2024/02/10 10:28:52;;;;;;;46.38;18.38;;;;;;;11.37;63.58;98728.38;5097796;28;20073;-74
2024/02/10 10:31:18;;;;;;;32.33;18.33;;;;;;;11.91;63.34;98714.94;5091500;28;20031;-73
2024/02/10 10:33:48;;;;;;;28.27;18.45;;;;;;;11.92;61.22;98726.97;5097144;28;20028;-71
2024/02/10 10:36:16;;;;;;;33.35;17.10;;;;;;;11.82;61.24;98714.28;5082881;28;20070;-71
2024/02/10 10:38:46;;;;;;;31.63;17.80;;;;;;;12.12;60.42;98713.03;5082301;28;20059;-73
2024/02/10 10:41:22;;;;;;;38.85;17.27;;;;;;;12.61;60.19;98709.78;5109570;28;20458;-72
2024/02/10 10:43:50;;;;;;;55.78;32.85;;;;;;;12.97;57.98;98712.50;5077960;28;20485;-72
2024/02/10 10:46:19;;;;;;;32.60;20.63;;;;;;;13.11;57.07;98711.16;5091725;28;20084;-73
2024/02/10 10:48:45;;;;;;;42.95;18.70;;;;;;;13.28;57.64;98716.34;5111336;28;20160;-72
2024/02/10 10:51:17;;;;;;;26.75;17.50;;;;;;;13.21;56.82;98716.19;5101183;28;20031;-73
2024/02/10 10:53:45;;;;;;;25.35;16.70;;;;;;;13.30;57.97;98716.75;5086740;28;20402;-73
2024/02/10 10:56:15;;;;;;;28.63;17.45;;;;;;;13.50;57.37;98705.50;5105009;28;20051;-72
2024/02/10 10:58:57;;;;;;;28.42;17.20;;;;;;;13.85;56.42;98710.13;5104991;28;20419;-71
2024/02/10 11:01:25;;;;;;;40.45;27.23;;;;;;;13.81;55.02;98712.06;5099575;28;20050;-72
2024/02/10 11:03:58;;;;;;;32.95;17.13;;;;;;;13.74;54.25;98707.16;5105252;28;20477;-72
2024/02/10 11:06:28;;;;;;;28.92;16.70;;;;;;;13.72;55.20;98697.47;5102088;28;20044;-72
2024/02/10 11:08:55;;;;;;;35.67;18.80;;;;;;;13.65;55.16;98686.13;5084784;28;20028;-72
2024/02/10 11:11:21;;;;;;;54.78;33.15;;;;;;;13.81;55.75;98681.16;5100503;28;20397;-72
2024/02/10 11:13:47;;;;;;;35.33;20.15;;;;;;;13.96;54.68;98685.03;5095740;28;20115;-70
2024/02/10 11:16:14;;;;;;;40.33;23.52;;;;;;;13.97;53.84;98691.44;5106287;28;20031;-74
2024/02/10 11:18:43;;;;;;;36.17;18.80;;;;;;;14.04;54.02;98671.88;5099566;28;20421;-72
2024/02/10 11:21:15;;;;;;;24.65;17.92;;;;;;;14.22;55.70;98676.94;5095045;28;20034;-73
2024/02/10 11:23:40;;;;;;;31.27;18.60;;;;;;;14.32;54.73;98670.66;5097249;28;20469;-74